sensor_id;sensor_type;location;lat;lon;timestamp;P1;durP1;ratioP1;P2;durP2;ratioP2
483;SDS011;228;48.922;12.198;2023-03-01T00:01:33;13.27;;;8.00;;
483;SDS011;228;48.922;12.198;2023-03-01T00:03:59;14.13;;;8.07;;
483;SDS011;228;48.922;12.198;2023-03-01T00:06:26;15.83;;;8.10;;
483;SDS011;228;48.922;12.198;2023-03-01T00:08:53;17.00;;;8.80;;
483;SDS011;228;48.922;12.198;2023-03-01T00:11:20;18.97;;;8.53;;
483;SDS011;228;48.922;12.198;2023-03-01T00:13:49;13.63;;;8.13;;
483;SDS011;228;48.922;12.198;2023-03-01T00:16:23;13.63;;;7.33;;
483;SDS011;228;48.922;12.198;2023-03-01T00:18:56;12.93;;;7.17;;
483;SDS011;228;48.922;12.198;2023-03-01T00:21:23;15.83;;;8.13;;
483;SDS011;228;48.922;12.198;2023-03-01T00:23:51;14.83;;;8.03;;
483;SDS011;228;48.922;12.198;2023-03-01T00:26:19;15.37;;;9.00;;
483;SDS011;228;48.922;12.198;2023-03-01T00:28:47;12.17;;;8.03;;
483;SDS011;228;48.922;12.198;2023-03-01T00:31:18;14.50;;;8.00;;
483;SDS011;228;48.922;12.198;2023-03-01T00:33:48;15.83;;;8.33;;
483;SDS011;228;48.922;12.198;2023-03-01T00:36:17;15.20;;;8.30;;
483;SDS011;228;48.922;12.198;2023-03-01T00:38:44;11.70;;;7.53;;
483;SDS011;228;48.922;12.198;2023-03-01T00:41:12;16.60;;;8.77;;
483;SDS011;228;48.922;12.198;2023-03-01T00:43:40;17.80;;;8.80;;
483;SDS011;228;48.922;12.198;2023-03-01T00:46:08;15.23;;;8.27;;
483;SDS011;228;48.922;12.198;2023-03-01T00:48:37;18.97;;;9.23;;
483;SDS011;228;48.922;12.198;2023-03-01T00:51:07;13.63;;;8.33;;
483;SDS011;228;48.922;12.198;2023-03-01T00:53:39;17.90;;;8.43;;
483;SDS011;228;48.922;12.198;2023-03-01T00:56:06;18.83;;;8.07;;
483;SDS011;228;48.922;12.198;2023-03-01T00:58:34;19.67;;;9.47;;
483;SDS011;228;48.922;12.198;2023-03-01T01:01:01;15.00;;;8.60;;
483;SDS011;228;48.922;12.198;2023-03-01T01:03:55;14.83;;;8.37;;
483;SDS011;228;48.922;12.198;2023-03-01T01:06:28;14.80;;;8.40;;
483;SDS011;228;48.922;12.198;2023-03-01T01:09:15;13.90;;;7.97;;
483;SDS011;228;48.922;12.198;2023-03-01T01:11:43;15.27;;;8.13;;
483;SDS011;228;48.922;12.198;2023-03-01T01:14:15;21.57;;;9.87;;
483;SDS011;228;48.922;12.198;2023-03-01T01:16:42;16.13;;;9.03;;
483;SDS011;228;48.922;12.198;2023-03-01T01:19:09;18.80;;;8.27;;
483;SDS011;228;48.922;12.198;2023-03-01T01:21:36;17.30;;;8.20;;
483;SDS011;228;48.922;12.198;2023-03-01T01:24:03;14.50;;;8.00;;
483;SDS011;228;48.922;12.198;2023-03-01T01:26:32;18.13;;;8.67;;
483;SDS011;228;48.922;12.198;2023-03-01T01:29:00;16.97;;;8.20;;
483;SDS011;228;48.922;12.198;2023-03-01T01:31:28;16.93;;;9.53;;
483;SDS011;228;48.922;12.198;2023-03-01T01:33:56;15.20;;;9.23;;
483;SDS011;228;48.922;12.198;2023-03-01T01:36:23;15.70;;;9.13;;
483;SDS011;228;48.922;12.198;2023-03-01T01:38:49;17.93;;;9.43;;
483;SDS011;228;48.922;12.198;2023-03-01T01:41:15;15.67;;;8.87;;
483;SDS011;228;48.922;12.198;2023-03-01T01:43:42;19.03;;;9.50;;
483;SDS011;228;48.922;12.198;2023-03-01T01:46:24;17.07;;;8.30;;
483;SDS011;228;48.922;12.198;2023-03-01T01:48:58;19.27;;;8.03;;
483;SDS011;228;48.922;12.198;2023-03-01T01:51:42;17.70;;;9.53;;
483;SDS011;228;48.922;12.198;2023-03-01T01:54:21;19.77;;;9.83;;
483;SDS011;228;48.922;12.198;2023-03-01T01:57:00;14.03;;;7.80;;
483;SDS011;228;48.922;12.198;2023-03-01T01:59:30;13.83;;;8.40;;
483;SDS011;228;48.922;12.198;2023-03-01T02:01:58;18.40;;;9.53;;
483;SDS011;228;48.922;12.198;2023-03-01T02:04:26;16.50;;;8.97;;
483;SDS011;228;48.922;12.198;2023-03-01T02:09:46;17.10;;;8.10;;
483;SDS011;228;48.922;12.198;2023-03-01T02:12:15;16.60;;;8.67;;
483;SDS011;228;48.922;12.198;2023-03-01T02:14:45;14.87;;;8.30;;
483;SDS011;228;48.922;12.198;2023-03-01T02:17:11;22.03;;;9.90;;
483;SDS011;228;48.922;12.198;2023-03-01T02:19:47;15.27;;;8.17;;
483;SDS011;228;48.922;12.198;2023-03-01T02:22:27;15.27;;;8.83;;
483;SDS011;228;48.922;12.198;2023-03-01T02:27:44;17.93;;;8.63;;
483;SDS011;228;48.922;12.198;2023-03-01T02:30:17;14.63;;;8.50;;
483;SDS011;228;48.922;12.198;2023-03-01T02:32:44;18.10;;;9.33;;
483;SDS011;228;48.922;12.198;2023-03-01T02:35:12;17.77;;;8.90;;
483;SDS011;228;48.922;12.198;2023-03-01T02:37:41;17.13;;;9.00;;
483;SDS011;228;48.922;12.198;2023-03-01T02:40:09;20.10;;;9.30;;
483;SDS011;228;48.922;12.198;2023-03-01T02:42:55;17.00;;;8.43;;
483;SDS011;228;48.922;12.198;2023-03-01T02:45:25;17.07;;;8.97;;
483;SDS011;228;48.922;12.198;2023-03-01T02:47:55;17.67;;;9.53;;
483;SDS011;228;48.922;12.198;2023-03-01T02:50:29;16.40;;;8.47;;
483;SDS011;228;48.922;12.198;2023-03-01T02:53:28;13.57;;;8.13;;
483;SDS011;228;48.922;12.198;2023-03-01T02:56:30;19.10;;;9.13;;
483;SDS011;228;48.922;12.198;2023-03-01T02:58:56;18.23;;;8.87;;
483;SDS011;228;48.922;12.198;2023-03-01T03:01:26;17.27;;;8.77;;
483;SDS011;228;48.922;12.198;2023-03-01T03:04:04;15.77;;;9.13;;
483;SDS011;228;48.922;12.198;2023-03-01T03:06:33;17.00;;;9.23;;
483;SDS011;228;48.922;12.198;2023-03-01T03:09:00;16.63;;;8.87;;
483;SDS011;228;48.922;12.198;2023-03-01T03:11:26;15.73;;;8.30;;
483;SDS011;228;48.922;12.198;2023-03-01T03:13:53;14.33;;;8.43;;
483;SDS011;228;48.922;12.198;2023-03-01T03:16:19;18.40;;;8.67;;
483;SDS011;228;48.922;12.198;2023-03-01T03:18:46;14.70;;;8.93;;
483;SDS011;228;48.922;12.198;2023-03-01T03:21:12;17.40;;;9.10;;
483;SDS011;228;48.922;12.198;2023-03-01T03:23:39;16.10;;;8.27;;
483;SDS011;228;48.922;12.198;2023-03-01T03:26:05;16.80;;;8.47;;
483;SDS011;228;48.922;12.198;2023-03-01T03:28:32;14.27;;;7.80;;
483;SDS011;228;48.922;12.198;2023-03-01T03:30:59;17.47;;;8.93;;
483;SDS011;228;48.922;12.198;2023-03-01T03:33:29;17.17;;;9.47;;
483;SDS011;228;48.922;12.198;2023-03-01T03:35:56;16.43;;;8.60;;
483;SDS011;228;48.922;12.198;2023-03-01T03:38:22;15.77;;;8.37;;
483;SDS011;228;48.922;12.198;2023-03-01T03:40:55;15.47;;;7.93;;
483;SDS011;228;48.922;12.198;2023-03-01T03:43:31;14.93;;;8.37;;
483;SDS011;228;48.922;12.198;2023-03-01T03:45:58;14.73;;;8.40;;
483;SDS011;228;48.922;12.198;2023-03-01T03:48:25;11.00;;;7.37;;
483;SDS011;228;48.922;12.198;2023-03-01T03:50:53;17.37;;;8.57;;
483;SDS011;228;48.922;12.198;2023-03-01T03:53:21;14.07;;;8.47;;
483;SDS011;228;48.922;12.198;2023-03-01T03:55:50;12.73;;;7.70;;
483;SDS011;228;48.922;12.198;2023-03-01T03:58:17;15.20;;;8.77;;
483;SDS011;228;48.922;12.198;2023-03-01T04:00:46;14.43;;;7.53;;
483;SDS011;228;48.922;12.198;2023-03-01T04:03:15;15.80;;;8.87;;
483;SDS011;228;48.922;12.198;2023-03-01T04:05:44;15.60;;;8.07;;
483;SDS011;228;48.922;12.198;2023-03-01T04:08:11;18.47;;;7.83;;
483;SDS011;228;48.922;12.198;2023-03-01T04:10:39;16.33;;;8.33;;
483;SDS011;228;48.922;12.198;2023-03-01T04:13:11;16.50;;;8.83;;
483;SDS011;228;48.922;12.198;2023-03-01T04:15:39;17.83;;;9.43;;
483;SDS011;228;48.922;12.198;2023-03-01T04:18:08;16.70;;;8.33;;
483;SDS011;228;48.922;12.198;2023-03-01T04:20:37;17.40;;;8.70;;
483;SDS011;228;48.922;12.198;2023-03-01T04:25:39;16.30;;;8.80;;
483;SDS011;228;48.922;12.198;2023-03-01T04:28:23;14.50;;;8.40;;
483;SDS011;228;48.922;12.198;2023-03-01T04:31:06;17.23;;;8.67;;
483;SDS011;228;48.922;12.198;2023-03-01T04:33:41;16.53;;;7.93;;
483;SDS011;228;48.922;12.198;2023-03-01T04:36:12;17.93;;;8.17;;
483;SDS011;228;48.922;12.198;2023-03-01T04:38:40;14.07;;;7.70;;
483;SDS011;228;48.922;12.198;2023-03-01T04:41:08;17.00;;;8.33;;
483;SDS011;228;48.922;12.198;2023-03-01T04:43:36;16.47;;;8.13;;
483;SDS011;228;48.922;12.198;2023-03-01T04:46:04;17.77;;;8.27;;
483;SDS011;228;48.922;12.198;2023-03-01T04:48:38;18.50;;;8.97;;
483;SDS011;228;48.922;12.198;2023-03-01T04:51:05;18.13;;;9.20;;
483;SDS011;228;48.922;12.198;2023-03-01T04:53:31;19.50;;;9.80;;
483;SDS011;228;48.922;12.198;2023-03-01T04:55:58;15.87;;;9.13;;
483;SDS011;228;48.922;12.198;2023-03-01T04:58:25;15.67;;;8.40;;
483;SDS011;228;48.922;12.198;2023-03-01T05:00:52;16.77;;;8.77;;
483;SDS011;228;48.922;12.198;2023-03-01T05:03:20;18.07;;;8.80;;
483;SDS011;228;48.922;12.198;2023-03-01T05:05:47;20.20;;;8.80;;
483;SDS011;228;48.922;12.198;2023-03-01T05:08:15;15.07;;;8.30;;
483;SDS011;228;48.922;12.198;2023-03-01T05:10:52;16.10;;;8.17;;
483;SDS011;228;48.922;12.198;2023-03-01T05:13:19;17.00;;;7.97;;
483;SDS011;228;48.922;12.198;2023-03-01T05:16:04;18.53;;;9.97;;
483;SDS011;228;48.922;12.198;2023-03-01T05:18:36;17.53;;;8.07;;
483;SDS011;228;48.922;12.198;2023-03-01T05:21:09;15.50;;;8.77;;
483;SDS011;228;48.922;12.198;2023-03-01T05:23:38;18.83;;;9.10;;
483;SDS011;228;48.922;12.198;2023-03-01T05:26:04;14.53;;;7.70;;
483;SDS011;228;48.922;12.198;2023-03-01T05:28:31;18.73;;;9.13;;
483;SDS011;228;48.922;12.198;2023-03-01T05:30:58;18.67;;;8.67;;
483;SDS011;228;48.922;12.198;2023-03-01T05:33:24;16.67;;;8.87;;
483;SDS011;228;48.922;12.198;2023-03-01T05:35:51;20.50;;;9.07;;
483;SDS011;228;48.922;12.198;2023-03-01T05:38:19;16.77;;;7.70;;
483;SDS011;228;48.922;12.198;2023-03-01T05:40:46;16.50;;;8.23;;
483;SDS011;228;48.922;12.198;2023-03-01T05:43:14;15.30;;;7.60;;
483;SDS011;228;48.922;12.198;2023-03-01T05:45:42;16.27;;;8.90;;
483;SDS011;228;48.922;12.198;2023-03-01T05:48:09;16.50;;;7.73;;
483;SDS011;228;48.922;12.198;2023-03-01T05:50:37;16.90;;;8.23;;
483;SDS011;228;48.922;12.198;2023-03-01T05:53:09;18.73;;;8.13;;
483;SDS011;228;48.922;12.198;2023-03-01T05:55:37;14.60;;;7.83;;
483;SDS011;228;48.922;12.198;2023-03-01T05:58:05;18.63;;;8.60;;
483;SDS011;228;48.922;12.198;2023-03-01T06:00:37;17.97;;;8.50;;
483;SDS011;228;48.922;12.198;2023-03-01T06:03:03;15.77;;;8.50;;
483;SDS011;228;48.922;12.198;2023-03-01T06:05:55;14.60;;;7.90;;
483;SDS011;228;48.922;12.198;2023-03-01T06:08:30;18.50;;;8.53;;
483;SDS011;228;48.922;12.198;2023-03-01T06:10:56;20.93;;;8.73;;
483;SDS011;228;48.922;12.198;2023-03-01T06:13:24;15.93;;;8.17;;
483;SDS011;228;48.922;12.198;2023-03-01T06:16:03;17.57;;;8.70;;
483;SDS011;228;48.922;12.198;2023-03-01T06:18:31;18.67;;;8.50;;
483;SDS011;228;48.922;12.198;2023-03-01T06:20:57;14.27;;;8.17;;
483;SDS011;228;48.922;12.198;2023-03-01T06:23:23;15.57;;;8.17;;
483;SDS011;228;48.922;12.198;2023-03-01T06:25:50;18.17;;;8.53;;
483;SDS011;228;48.922;12.198;2023-03-01T06:28:16;20.57;;;8.50;;
483;SDS011;228;48.922;12.198;2023-03-01T06:30:42;19.97;;;10.13;;
483;SDS011;228;48.922;12.198;2023-03-01T06:33:08;18.80;;;9.00;;
483;SDS011;228;48.922;12.198;2023-03-01T06:35:34;17.17;;;8.50;;
483;SDS011;228;48.922;12.198;2023-03-01T06:38:01;18.67;;;8.63;;
483;SDS011;228;48.922;12.198;2023-03-01T06:40:29;17.67;;;9.07;;
483;SDS011;228;48.922;12.198;2023-03-01T06:42:56;20.73;;;10.33;;
483;SDS011;228;48.922;12.198;2023-03-01T06:45:23;14.27;;;8.00;;
483;SDS011;228;48.922;12.198;2023-03-01T06:47:49;19.43;;;9.53;;
483;SDS011;228;48.922;12.198;2023-03-01T06:50:16;22.80;;;9.70;;
483;SDS011;228;48.922;12.198;2023-03-01T06:52:43;20.23;;;10.33;;
483;SDS011;228;48.922;12.198;2023-03-01T06:55:10;16.43;;;9.37;;
483;SDS011;228;48.922;12.198;2023-03-01T06:57:37;15.23;;;9.10;;
483;SDS011;228;48.922;12.198;2023-03-01T07:00:04;18.70;;;10.07;;
483;SDS011;228;48.922;12.198;2023-03-01T07:02:31;20.13;;;9.40;;
483;SDS011;228;48.922;12.198;2023-03-01T07:04:57;18.80;;;9.77;;
483;SDS011;228;48.922;12.198;2023-03-01T07:07:23;19.47;;;10.17;;
483;SDS011;228;48.922;12.198;2023-03-01T07:09:49;19.53;;;9.97;;
483;SDS011;228;48.922;12.198;2023-03-01T07:12:15;19.30;;;10.27;;
483;SDS011;228;48.922;12.198;2023-03-01T07:14:43;15.90;;;9.23;;
483;SDS011;228;48.922;12.198;2023-03-01T07:17:09;21.20;;;9.73;;
483;SDS011;228;48.922;12.198;2023-03-01T07:19:35;18.00;;;8.97;;
483;SDS011;228;48.922;12.198;2023-03-01T07:22:02;17.60;;;9.57;;
483;SDS011;228;48.922;12.198;2023-03-01T07:24:29;17.40;;;8.87;;
483;SDS011;228;48.922;12.198;2023-03-01T07:26:55;20.80;;;10.07;;
483;SDS011;228;48.922;12.198;2023-03-01T07:29:21;20.07;;;9.40;;
483;SDS011;228;48.922;12.198;2023-03-01T07:31:47;18.63;;;10.77;;
483;SDS011;228;48.922;12.198;2023-03-01T07:34:13;18.57;;;10.53;;
483;SDS011;228;48.922;12.198;2023-03-01T07:36:39;20.27;;;10.50;;
483;SDS011;228;48.922;12.198;2023-03-01T07:39:09;20.40;;;10.37;;
483;SDS011;228;48.922;12.198;2023-03-01T07:41:36;17.77;;;9.33;;
483;SDS011;228;48.922;12.198;2023-03-01T07:44:02;17.80;;;10.23;;
483;SDS011;228;48.922;12.198;2023-03-01T07:46:28;26.13;;;11.07;;
483;SDS011;228;48.922;12.198;2023-03-01T07:48:54;21.57;;;10.70;;
483;SDS011;228;48.922;12.198;2023-03-01T07:51:20;23.97;;;10.23;;
483;SDS011;228;48.922;12.198;2023-03-01T07:53:49;20.97;;;11.13;;
483;SDS011;228;48.922;12.198;2023-03-01T07:56:20;24.03;;;10.90;;
483;SDS011;228;48.922;12.198;2023-03-01T07:58:47;18.73;;;10.03;;
483;SDS011;228;48.922;12.198;2023-03-01T08:01:14;22.87;;;9.93;;
483;SDS011;228;48.922;12.198;2023-03-01T08:03:43;16.43;;;9.20;;
483;SDS011;228;48.922;12.198;2023-03-01T08:06:10;17.73;;;9.47;;
483;SDS011;228;48.922;12.198;2023-03-01T08:08:38;16.63;;;9.10;;
483;SDS011;228;48.922;12.198;2023-03-01T08:11:05;19.67;;;9.80;;
483;SDS011;228;48.922;12.198;2023-03-01T08:13:34;19.47;;;9.77;;
483;SDS011;228;48.922;12.198;2023-03-01T08:16:05;20.20;;;9.53;;
483;SDS011;228;48.922;12.198;2023-03-01T08:18:35;20.33;;;9.87;;
483;SDS011;228;48.922;12.198;2023-03-01T08:21:02;16.40;;;9.33;;
483;SDS011;228;48.922;12.198;2023-03-01T08:23:36;17.10;;;10.17;;
483;SDS011;228;48.922;12.198;2023-03-01T08:26:13;18.77;;;10.27;;
483;SDS011;228;48.922;12.198;2023-03-01T08:28:43;20.47;;;9.87;;
483;SDS011;228;48.922;12.198;2023-03-01T08:31:14;17.97;;;9.93;;
483;SDS011;228;48.922;12.198;2023-03-01T08:33:43;20.93;;;10.23;;
483;SDS011;228;48.922;12.198;2023-03-01T08:36:09;16.97;;;9.50;;
483;SDS011;228;48.922;12.198;2023-03-01T08:38:35;16.77;;;9.60;;
483;SDS011;228;48.922;12.198;2023-03-01T08:41:02;19.57;;;9.60;;
483;SDS011;228;48.922;12.198;2023-03-01T08:43:29;14.63;;;9.57;;
483;SDS011;228;48.922;12.198;2023-03-01T08:45:59;16.67;;;9.43;;
483;SDS011;228;48.922;12.198;2023-03-01T08:48:27;15.63;;;9.70;;
483;SDS011;228;48.922;12.198;2023-03-01T08:50:54;18.47;;;9.90;;
483;SDS011;228;48.922;12.198;2023-03-01T08:53:20;19.20;;;9.57;;
483;SDS011;228;48.922;12.198;2023-03-01T08:55:51;21.53;;;10.43;;
483;SDS011;228;48.922;12.198;2023-03-01T08:58:17;17.57;;;10.30;;
483;SDS011;228;48.922;12.198;2023-03-01T09:00:43;19.47;;;9.40;;
483;SDS011;228;48.922;12.198;2023-03-01T09:03:43;17.07;;;9.73;;
483;SDS011;228;48.922;12.198;2023-03-01T09:06:10;15.67;;;9.60;;
483;SDS011;228;48.922;12.198;2023-03-01T09:08:44;25.23;;;12.67;;
483;SDS011;228;48.922;12.198;2023-03-01T09:11:14;18.50;;;9.90;;
483;SDS011;228;48.922;12.198;2023-03-01T09:13:44;19.57;;;10.57;;
483;SDS011;228;48.922;12.198;2023-03-01T09:16:13;20.80;;;10.70;;
483;SDS011;228;48.922;12.198;2023-03-01T09:18:43;19.07;;;10.10;;
483;SDS011;228;48.922;12.198;2023-03-01T09:21:14;15.60;;;8.90;;
483;SDS011;228;48.922;12.198;2023-03-01T09:23:46;13.70;;;8.63;;
483;SDS011;228;48.922;12.198;2023-03-01T09:26:37;18.00;;;10.07;;
483;SDS011;228;48.922;12.198;2023-03-01T09:29:03;18.50;;;10.13;;
483;SDS011;228;48.922;12.198;2023-03-01T09:31:55;17.73;;;9.20;;
483;SDS011;228;48.922;12.198;2023-03-01T09:34:48;16.00;;;9.20;;
483;SDS011;228;48.922;12.198;2023-03-01T09:37:39;15.90;;;9.73;;
483;SDS011;228;48.922;12.198;2023-03-01T09:40:49;15.97;;;9.20;;
483;SDS011;228;48.922;12.198;2023-03-01T09:46:30;14.30;;;9.20;;
483;SDS011;228;48.922;12.198;2023-03-01T09:53:07;16.13;;;8.50;;
483;SDS011;228;48.922;12.198;2023-03-01T10:02:42;14.40;;;8.00;;
483;SDS011;228;48.922;12.198;2023-03-01T10:08:40;12.07;;;6.80;;
483;SDS011;228;48.922;12.198;2023-03-01T10:11:50;10.87;;;6.77;;
483;SDS011;228;48.922;12.198;2023-03-01T10:30:39;13.87;;;8.77;;
483;SDS011;228;48.922;12.198;2023-03-01T10:33:54;12.60;;;8.03;;
483;SDS011;228;48.922;12.198;2023-03-01T10:36:22;15.90;;;8.57;;
483;SDS011;228;48.922;12.198;2023-03-01T10:38:55;13.40;;;8.47;;
483;SDS011;228;48.922;12.198;2023-03-01T10:41:23;13.50;;;8.73;;
483;SDS011;228;48.922;12.198;2023-03-01T10:43:54;13.57;;;8.20;;
483;SDS011;228;48.922;12.198;2023-03-01T10:49:16;13.23;;;8.57;;
483;SDS011;228;48.922;12.198;2023-03-01T10:51:48;10.93;;;8.00;;
483;SDS011;228;48.922;12.198;2023-03-01T11:06:37;11.00;;;7.30;;
483;SDS011;228;48.922;12.198;2023-03-01T11:09:15;11.10;;;7.03;;
483;SDS011;228;48.922;12.198;2023-03-01T11:12:05;10.50;;;6.70;;
483;SDS011;228;48.922;12.198;2023-03-01T11:14:54;14.07;;;7.20;;
483;SDS011;228;48.922;12.198;2023-03-01T11:17:29;10.87;;;6.63;;
483;SDS011;228;48.922;12.198;2023-03-01T11:22:50;12.77;;;8.20;;
483;SDS011;228;48.922;12.198;2023-03-01T11:25:44;13.43;;;8.17;;
483;SDS011;228;48.922;12.198;2023-03-01T11:28:19;14.33;;;8.80;;
483;SDS011;228;48.922;12.198;2023-03-01T11:31:10;14.63;;;7.93;;
483;SDS011;228;48.922;12.198;2023-03-01T11:42:06;13.43;;;8.43;;
483;SDS011;228;48.922;12.198;2023-03-01T11:44:56;14.93;;;9.50;;
483;SDS011;228;48.922;12.198;2023-03-01T11:51:09;14.77;;;9.40;;
483;SDS011;228;48.922;12.198;2023-03-01T12:14:03;15.57;;;11.02;;
483;SDS011;228;48.922;12.198;2023-03-01T12:16:58;15.43;;;11.30;;
483;SDS011;228;48.922;12.198;2023-03-01T12:37:22;16.98;;;11.73;;
483;SDS011;228;48.922;12.198;2023-03-01T12:48:59;14.15;;;11.02;;
483;SDS011;228;48.922;12.198;2023-03-01T12:51:34;17.15;;;12.23;;
483;SDS011;228;48.922;12.198;2023-03-01T12:54:15;17.85;;;12.45;;
483;SDS011;228;48.922;12.198;2023-03-01T12:56:48;16.13;;;11.63;;
483;SDS011;228;48.922;12.198;2023-03-01T13:02:36;14.10;;;11.40;;
483;SDS011;228;48.922;12.198;2023-03-01T13:05:14;16.33;;;12.02;;
483;SDS011;228;48.922;12.198;2023-03-01T13:08:18;14.90;;;11.25;;
483;SDS011;228;48.922;12.198;2023-03-01T13:11:01;14.35;;;10.73;;
483;SDS011;228;48.922;12.198;2023-03-01T13:13:31;14.73;;;10.45;;
483;SDS011;228;48.922;12.198;2023-03-01T13:15:57;16.00;;;11.45;;
483;SDS011;228;48.922;12.198;2023-03-01T13:21:54;15.88;;;10.85;;
483;SDS011;228;48.922;12.198;2023-03-01T13:35:04;14.93;;;11.90;;
483;SDS011;228;48.922;12.198;2023-03-01T13:37:51;17.15;;;11.60;;
483;SDS011;228;48.922;12.198;2023-03-01T13:42:51;14.35;;;11.43;;
483;SDS011;228;48.922;12.198;2023-03-01T13:48:20;15.20;;;10.55;;
483;SDS011;228;48.922;12.198;2023-03-01T13:50:54;16.30;;;11.05;;
483;SDS011;228;48.922;12.198;2023-03-01T13:53:26;15.55;;;10.50;;
483;SDS011;228;48.922;12.198;2023-03-01T13:56:07;15.70;;;10.75;;
483;SDS011;228;48.922;12.198;2023-03-01T13:58:53;14.38;;;10.70;;
483;SDS011;228;48.922;12.198;2023-03-01T14:01:32;14.98;;;10.88;;
483;SDS011;228;48.922;12.198;2023-03-01T14:04:01;15.05;;;11.68;;
483;SDS011;228;48.922;12.198;2023-03-01T14:06:30;13.80;;;10.82;;
483;SDS011;228;48.922;12.198;2023-03-01T14:09:03;15.30;;;10.77;;
483;SDS011;228;48.922;12.198;2023-03-01T14:11:56;14.23;;;10.40;;
483;SDS011;228;48.922;12.198;2023-03-01T14:20:50;17.23;;;11.50;;
483;SDS011;228;48.922;12.198;2023-03-01T14:23:21;16.63;;;10.68;;
483;SDS011;228;48.922;12.198;2023-03-01T14:25:50;16.70;;;10.50;;
483;SDS011;228;48.922;12.198;2023-03-01T14:28:31;16.85;;;11.30;;
483;SDS011;228;48.922;12.198;2023-03-01T14:31:00;19.70;;;11.20;;
483;SDS011;228;48.922;12.198;2023-03-01T14:33:30;15.30;;;10.87;;
483;SDS011;228;48.922;12.198;2023-03-01T14:36:06;15.07;;;11.20;;
483;SDS011;228;48.922;12.198;2023-03-01T14:38:46;14.93;;;10.93;;
483;SDS011;228;48.922;12.198;2023-03-01T14:43:55;16.20;;;10.87;;
483;SDS011;228;48.922;12.198;2023-03-01T14:46:32;18.27;;;11.60;;
483;SDS011;228;48.922;12.198;2023-03-01T14:49:03;20.23;;;11.57;;
483;SDS011;228;48.922;12.198;2023-03-01T14:51:42;16.23;;;10.93;;
483;SDS011;228;48.922;12.198;2023-03-01T14:56:54;17.03;;;11.67;;
483;SDS011;228;48.922;12.198;2023-03-01T14:59:25;17.43;;;11.40;;
483;SDS011;228;48.922;12.198;2023-03-01T15:01:52;16.80;;;12.03;;
483;SDS011;228;48.922;12.198;2023-03-01T15:04:21;16.07;;;11.47;;
483;SDS011;228;48.922;12.198;2023-03-01T15:06:55;16.23;;;11.63;;
483;SDS011;228;48.922;12.198;2023-03-01T15:09:30;17.13;;;11.23;;
483;SDS011;228;48.922;12.198;2023-03-01T15:11:59;17.83;;;11.33;;
483;SDS011;228;48.922;12.198;2023-03-01T15:14:41;15.37;;;10.73;;
483;SDS011;228;48.922;12.198;2023-03-01T15:20:02;15.87;;;10.80;;
483;SDS011;228;48.922;12.198;2023-03-01T15:22:32;14.00;;;9.87;;
483;SDS011;228;48.922;12.198;2023-03-01T15:24:58;16.63;;;10.17;;
483;SDS011;228;48.922;12.198;2023-03-01T15:27:27;17.27;;;10.30;;
483;SDS011;228;48.922;12.198;2023-03-01T15:29:57;17.03;;;11.03;;
483;SDS011;228;48.922;12.198;2023-03-01T15:32:31;17.67;;;10.53;;
483;SDS011;228;48.922;12.198;2023-03-01T15:38:22;16.93;;;11.13;;
483;SDS011;228;48.922;12.198;2023-03-01T15:40:53;13.80;;;10.00;;
483;SDS011;228;48.922;12.198;2023-03-01T15:43:41;16.60;;;10.20;;
483;SDS011;228;48.922;12.198;2023-03-01T15:52:22;16.40;;;9.83;;
483;SDS011;228;48.922;12.198;2023-03-01T15:55:01;16.10;;;9.77;;
483;SDS011;228;48.922;12.198;2023-03-01T15:57:43;16.67;;;10.17;;
483;SDS011;228;48.922;12.198;2023-03-01T16:00:09;17.40;;;10.77;;
483;SDS011;228;48.922;12.198;2023-03-01T16:02:41;17.50;;;10.03;;
483;SDS011;228;48.922;12.198;2023-03-01T16:05:20;15.03;;;10.00;;
483;SDS011;228;48.922;12.198;2023-03-01T16:07:57;20.03;;;11.97;;
483;SDS011;228;48.922;12.198;2023-03-01T16:10:23;19.30;;;10.83;;
483;SDS011;228;48.922;12.198;2023-03-01T16:12:50;18.43;;;10.83;;
483;SDS011;228;48.922;12.198;2023-03-01T16:15:19;16.10;;;10.70;;
483;SDS011;228;48.922;12.198;2023-03-01T16:17:54;18.03;;;10.90;;
483;SDS011;228;48.922;12.198;2023-03-01T16:20:21;17.13;;;9.40;;
483;SDS011;228;48.922;12.198;2023-03-01T16:22:48;17.80;;;10.17;;
483;SDS011;228;48.922;12.198;2023-03-01T16:25:15;20.07;;;11.13;;
483;SDS011;228;48.922;12.198;2023-03-01T16:27:45;18.50;;;10.57;;
483;SDS011;228;48.922;12.198;2023-03-01T16:30:13;20.37;;;9.83;;
483;SDS011;228;48.922;12.198;2023-03-01T16:32:43;17.47;;;10.60;;
483;SDS011;228;48.922;12.198;2023-03-01T16:35:11;16.57;;;10.47;;
483;SDS011;228;48.922;12.198;2023-03-01T16:37:39;18.30;;;9.93;;
483;SDS011;228;48.922;12.198;2023-03-01T16:40:07;17.80;;;9.03;;
483;SDS011;228;48.922;12.198;2023-03-01T16:42:46;17.60;;;10.43;;
483;SDS011;228;48.922;12.198;2023-03-01T16:45:13;16.97;;;9.47;;
483;SDS011;228;48.922;12.198;2023-03-01T16:47:39;19.37;;;9.77;;
483;SDS011;228;48.922;12.198;2023-03-01T16:50:05;15.90;;;9.40;;
483;SDS011;228;48.922;12.198;2023-03-01T16:52:33;14.27;;;9.70;;
483;SDS011;228;48.922;12.198;2023-03-01T16:54:59;20.40;;;10.10;;
483;SDS011;228;48.922;12.198;2023-03-01T16:57:25;17.07;;;9.93;;
483;SDS011;228;48.922;12.198;2023-03-01T16:59:51;16.23;;;9.10;;
483;SDS011;228;48.922;12.198;2023-03-01T17:02:20;17.97;;;10.27;;
483;SDS011;228;48.922;12.198;2023-03-01T17:04:53;17.27;;;8.90;;
483;SDS011;228;48.922;12.198;2023-03-01T17:07:20;18.53;;;9.47;;
483;SDS011;228;48.922;12.198;2023-03-01T17:09:47;18.13;;;10.47;;
483;SDS011;228;48.922;12.198;2023-03-01T17:12:14;16.43;;;8.87;;
483;SDS011;228;48.922;12.198;2023-03-01T17:14:41;18.90;;;9.87;;
483;SDS011;228;48.922;12.198;2023-03-01T17:17:08;15.83;;;9.53;;
483;SDS011;228;48.922;12.198;2023-03-01T17:19:34;18.17;;;10.07;;
483;SDS011;228;48.922;12.198;2023-03-01T17:22:05;18.57;;;9.47;;
483;SDS011;228;48.922;12.198;2023-03-01T17:24:32;19.27;;;9.70;;
483;SDS011;228;48.922;12.198;2023-03-01T17:27:03;17.60;;;9.53;;
483;SDS011;228;48.922;12.198;2023-03-01T17:29:29;19.60;;;9.90;;
483;SDS011;228;48.922;12.198;2023-03-01T17:31:56;19.07;;;10.60;;
483;SDS011;228;48.922;12.198;2023-03-01T17:34:22;18.90;;;9.47;;
483;SDS011;228;48.922;12.198;2023-03-01T17:36:49;19.27;;;9.70;;
483;SDS011;228;48.922;12.198;2023-03-01T17:39:17;18.60;;;10.03;;
483;SDS011;228;48.922;12.198;2023-03-01T17:41:54;18.83;;;9.40;;
483;SDS011;228;48.922;12.198;2023-03-01T17:44:22;18.33;;;9.33;;
483;SDS011;228;48.922;12.198;2023-03-01T17:46:48;19.23;;;9.70;;
483;SDS011;228;48.922;12.198;2023-03-01T17:49:14;19.60;;;10.67;;
483;SDS011;228;48.922;12.198;2023-03-01T17:51:42;18.27;;;10.03;;
483;SDS011;228;48.922;12.198;2023-03-01T17:54:08;18.90;;;10.50;;
483;SDS011;228;48.922;12.198;2023-03-01T17:56:34;16.43;;;9.50;;
483;SDS011;228;48.922;12.198;2023-03-01T17:59:03;13.90;;;9.00;;
483;SDS011;228;48.922;12.198;2023-03-01T18:01:30;16.07;;;8.70;;
483;SDS011;228;48.922;12.198;2023-03-01T18:03:57;15.50;;;8.87;;
483;SDS011;228;48.922;12.198;2023-03-01T18:06:26;16.33;;;8.93;;
483;SDS011;228;48.922;12.198;2023-03-01T18:09:09;13.97;;;8.37;;
483;SDS011;228;48.922;12.198;2023-03-01T18:11:36;13.20;;;8.30;;
483;SDS011;228;48.922;12.198;2023-03-01T18:14:02;17.43;;;9.73;;
483;SDS011;228;48.922;12.198;2023-03-01T18:16:29;14.53;;;8.90;;
483;SDS011;228;48.922;12.198;2023-03-01T18:18:55;14.50;;;8.43;;
483;SDS011;228;48.922;12.198;2023-03-01T18:21:22;13.37;;;8.03;;
483;SDS011;228;48.922;12.198;2023-03-01T18:23:56;14.23;;;8.10;;